sensor_id;sensor_type;location;lat;lon;timestamp;temperature;humidity
11812;DHT22;5963;50.184;9.162;2022-09-03T00:00:20;17.20;95.40
11812;DHT22;5963;50.184;9.162;2022-09-03T00:02:56;17.20;95.40
11812;DHT22;5963;50.184;9.162;2022-09-03T00:05:30;17.20;95.60
11812;DHT22;5963;50.184;9.162;2022-09-03T00:08:06;17.20;95.70
11812;DHT22;5963;50.184;9.162;2022-09-03T00:10:44;17.10;95.80
11812;DHT22;5963;50.184;9.162;2022-09-03T00:13:15;17.20;95.90
11812;DHT22;5963;50.184;9.162;2022-09-03T00:15:46;17.10;95.90
11812;DHT22;5963;50.184;9.162;2022-09-03T00:18:17;17.10;96.00
11812;DHT22;5963;50.184;9.162;2022-09-03T00:20:50;17.00;96.20
11812;DHT22;5963;50.184;9.162;2022-09-03T00:23:22;17.00;96.20
11812;DHT22;5963;50.184;9.162;2022-09-03T00:25:54;17.00;96.30
11812;DHT22;5963;50.184;9.162;2022-09-03T00:28:29;17.10;96.40
11812;DHT22;5963;50.184;9.162;2022-09-03T00:31:06;16.90;96.60
11812;DHT22;5963;50.184;9.162;2022-09-03T00:33:39;16.90;96.70
11812;DHT22;5963;50.184;9.162;2022-09-03T00:36:14;16.90;96.70
11812;DHT22;5963;50.184;9.162;2022-09-03T00:38:43;17.00;96.80
11812;DHT22;5963;50.184;9.162;2022-09-03T00:41:22;16.90;96.80
11812;DHT22;5963;50.184;9.162;2022-09-03T00:44:11;16.90;96.90
11812;DHT22;5963;50.184;9.162;2022-09-03T00:46:45;16.90;97.10
11812;DHT22;5963;50.184;9.162;2022-09-03T00:49:26;16.90;97.20
11812;DHT22;5963;50.184;9.162;2022-09-03T00:52:04;16.90;97.20
11812;DHT22;5963;50.184;9.162;2022-09-03T00:54:42;16.90;97.30
11812;DHT22;5963;50.184;9.162;2022-09-03T00:57:25;16.90;97.30
11812;DHT22;5963;50.184;9.162;2022-09-03T01:00:03;16.90;97.40
11812;DHT22;5963;50.184;9.162;2022-09-03T01:02:48;16.80;97.60
11812;DHT22;5963;50.184;9.162;2022-09-03T01:05:32;16.80;97.70
11812;DHT22;5963;50.184;9.162;2022-09-03T01:08:12;16.80;97.70
11812;DHT22;5963;50.184;9.162;2022-09-03T01:10:51;16.80;97.80
11812;DHT22;5963;50.184;9.162;2022-09-03T01:13:26;16.80;98.00
11812;DHT22;5963;50.184;9.162;2022-09-03T01:16:06;16.80;98.10
11812;DHT22;5963;50.184;9.162;2022-09-03T01:18:43;16.70;98.30
11812;DHT22;5963;50.184;9.162;2022-09-03T01:21:31;16.70;98.30
11812;DHT22;5963;50.184;9.162;2022-09-03T01:24:39;16.60;98.50
11812;DHT22;5963;50.184;9.162;2022-09-03T01:27:24;16.60;98.60
11812;DHT22;5963;50.184;9.162;2022-09-03T01:30:02;16.70;98.80
11812;DHT22;5963;50.184;9.162;2022-09-03T01:32:38;16.60;98.90
11812;DHT22;5963;50.184;9.162;2022-09-03T01:35:16;16.30;99.60
11812;DHT22;5963;50.184;9.162;2022-09-03T01:37:55;16.30;99.80
11812;DHT22;5963;50.184;9.162;2022-09-03T01:40:32;16.40;99.90
11812;DHT22;5963;50.184;9.162;2022-09-03T01:43:23;16.40;99.90
11812;DHT22;5963;50.184;9.162;2022-09-03T01:46:08;16.40;99.90
11812;DHT22;5963;50.184;9.162;2022-09-03T01:48:46;16.50;99.90
11812;DHT22;5963;50.184;9.162;2022-09-03T01:51:20;16.50;99.90
11812;DHT22;5963;50.184;9.162;2022-09-03T01:54:19;16.60;99.90
11812;DHT22;5963;50.184;9.162;2022-09-03T01:57:17;16.60;99.90
11812;DHT22;5963;50.184;9.162;2022-09-03T02:00:05;16.40;99.90
11812;DHT22;5963;50.184;9.162;2022-09-03T02:02:36;16.30;99.90
11812;DHT22;5963;50.184;9.162;2022-09-03T02:05:06;16.30;99.90
11812;DHT22;5963;50.184;9.162;2022-09-03T02:07:37;16.20;99.90
11812;DHT22;5963;50.184;9.162;2022-09-03T02:10:08;16.20;99.90
11812;DHT22;5963;50.184;9.162;2022-09-03T02:12:38;16.20;99.90
11812;DHT22;5963;50.184;9.162;2022-09-03T02:15:11;16.20;99.90
11812;DHT22;5963;50.184;9.162;2022-09-03T02:17:43;16.20;99.90
11812;DHT22;5963;50.184;9.162;2022-09-03T02:20:16;16.20;99.90
11812;DHT22;5963;50.184;9.162;2022-09-03T02:22:47;16.10;99.90
11812;DHT22;5963;50.184;9.162;2022-09-03T02:25:16;16.10;99.90
11812;DHT22;5963;50.184;9.162;2022-09-03T02:27:44;16.10;99.90
11812;DHT22;5963;50.184;9.162;2022-09-03T02:30:12;16.10;99.90
11812;DHT22;5963;50.184;9.162;2022-09-03T02:32:42;16.10;99.90
11812;DHT22;5963;50.184;9.162;2022-09-03T02:35:10;16.10;99.90
11812;DHT22;5963;50.184;9.162;2022-09-03T02:37:39;16.10;99.90
11812;DHT22;5963;50.184;9.162;2022-09-03T02:40:08;16.10;99.90
11812;DHT22;5963;50.184;9.162;2022-09-03T02:42:37;16.10;99.90
11812;DHT22;5963;50.184;9.162;2022-09-03T02:45:13;16.00;99.90
11812;DHT22;5963;50.184;9.162;2022-09-03T02:47:51;16.00;99.90
11812;DHT22;5963;50.184;9.162;2022-09-03T02:50:20;16.10;99.90
11812;DHT22;5963;50.184;9.162;2022-09-03T02:52:49;16.00;99.90
11812;DHT22;5963;50.184;9.162;2022-09-03T02:55:17;16.10;99.90
11812;DHT22;5963;50.184;9.162;2022-09-03T02:57:46;16.00;99.90
11812;DHT22;5963;50.184;9.162;2022-09-03T03:00:14;16.00;99.90
11812;DHT22;5963;50.184;9.162;2022-09-03T03:02:42;16.10;99.90
11812;DHT22;5963;50.184;9.162;2022-09-03T03:05:19;16.00;99.90
11812;DHT22;5963;50.184;9.162;2022-09-03T03:07:48;16.00;99.90
11812;DHT22;5963;50.184;9.162;2022-09-03T03:10:16;16.00;99.90
11812;DHT22;5963;50.184;9.162;2022-09-03T03:12:44;16.00;99.90
11812;DHT22;5963;50.184;9.162;2022-09-03T03:15:12;16.00;99.90
11812;DHT22;5963;50.184;9.162;2022-09-03T03:17:41;16.00;99.90
11812;DHT22;5963;50.184;9.162;2022-09-03T03:20:09;16.00;99.90
11812;DHT22;5963;50.184;9.162;2022-09-03T03:22:39;15.90;99.90
11812;DHT22;5963;50.184;9.162;2022-09-03T03:25:08;15.90;99.90
11812;DHT22;5963;50.184;9.162;2022-09-03T03:27:36;15.90;99.90
11812;DHT22;5963;50.184;9.162;2022-09-03T03:30:10;15.90;99.90
11812;DHT22;5963;50.184;9.162;2022-09-03T03:32:38;15.90;99.90
11812;DHT22;5963;50.184;9.162;2022-09-03T03:35:07;15.90;99.90
11812;DHT22;5963;50.184;9.162;2022-09-03T03:37:38;15.90;99.90
11812;DHT22;5963;50.184;9.162;2022-09-03T03:40:08;15.90;99.90
11812;DHT22;5963;50.184;9.162;2022-09-03T03:42:36;15.90;99.90
11812;DHT22;5963;50.184;9.162;2022-09-03T03:45:05;15.90;99.90
11812;DHT22;5963;50.184;9.162;2022-09-03T03:47:34;15.90;99.90
11812;DHT22;5963;50.184;9.162;2022-09-03T03:50:02;15.90;99.90
11812;DHT22;5963;50.184;9.162;2022-09-03T03:52:31;15.90;99.90
11812;DHT22;5963;50.184;9.162;2022-09-03T03:55:00;15.90;99.90
11812;DHT22;5963;50.184;9.162;2022-09-03T03:57:29;15.90;99.90
11812;DHT22;5963;50.184;9.162;2022-09-03T03:59:58;16.00;99.90
11812;DHT22;5963;50.184;9.162;2022-09-03T04:02:26;16.00;99.90
11812;DHT22;5963;50.184;9.162;2022-09-03T04:04:54;16.00;99.90
11812;DHT22;5963;50.184;9.162;2022-09-03T04:07:24;16.00;99.90
11812;DHT22;5963;50.184;9.162;2022-09-03T04:09:52;15.90;99.90
11812;DHT22;5963;50.184;9.162;2022-09-03T04:12:22;16.00;99.90
11812;DHT22;5963;50.184;9.162;2022-09-03T04:14:50;16.00;99.90
11812;DHT22;5963;50.184;9.162;2022-09-03T04:17:18;16.00;99.90
11812;DHT22;5963;50.184;9.162;2022-09-03T04:19:50;15.90;99.90
11812;DHT22;5963;50.184;9.162;2022-09-03T04:22:18;15.90;99.90
11812;DHT22;5963;50.184;9.162;2022-09-03T04:24:46;15.90;99.90
11812;DHT22;5963;50.184;9.162;2022-09-03T04:27:14;16.00;99.90
11812;DHT22;5963;50.184;9.162;2022-09-03T04:29:44;16.00;99.90
11812;DHT22;5963;50.184;9.162;2022-09-03T04:32:12;16.00;99.90
11812;DHT22;5963;50.184;9.162;2022-09-03T04:34:58;16.00;99.90
11812;DHT22;5963;50.184;9.162;2022-09-03T04:37:26;15.90;99.90
11812;DHT22;5963;50.184;9.162;2022-09-03T04:39:54;15.90;99.90
11812;DHT22;5963;50.184;9.162;2022-09-03T04:42:22;15.90;99.90
11812;DHT22;5963;50.184;9.162;2022-09-03T04:44:52;15.90;99.90
11812;DHT22;5963;50.184;9.162;2022-09-03T04:47:20;16.00;99.90
11812;DHT22;5963;50.184;9.162;2022-09-03T04:49:49;16.00;99.90
11812;DHT22;5963;50.184;9.162;2022-09-03T04:52:17;16.00;99.90
11812;DHT22;5963;50.184;9.162;2022-09-03T04:54:45;16.00;99.90
11812;DHT22;5963;50.184;9.162;2022-09-03T04:57:13;16.00;99.90
11812;DHT22;5963;50.184;9.162;2022-09-03T04:59:41;16.00;99.90
11812;DHT22;5963;50.184;9.162;2022-09-03T05:02:11;16.00;99.90
11812;DHT22;5963;50.184;9.162;2022-09-03T05:04:41;16.00;99.90
11812;DHT22;5963;50.184;9.162;2022-09-03T05:07:09;15.90;99.90
11812;DHT22;5963;50.184;9.162;2022-09-03T05:09:37;16.00;99.90
11812;DHT22;5963;50.184;9.162;2022-09-03T05:12:05;16.00;99.90
11812;DHT22;5963;50.184;9.162;2022-09-03T05:14:34;16.00;99.90
11812;DHT22;5963;50.184;9.162;2022-09-03T05:17:02;16.10;99.90
11812;DHT22;5963;50.184;9.162;2022-09-03T05:19:31;16.00;99.90
11812;DHT22;5963;50.184;9.162;2022-09-03T05:22:00;16.10;99.90
11812;DHT22;5963;50.184;9.162;2022-09-03T05:24:27;16.10;99.90
11812;DHT22;5963;50.184;9.162;2022-09-03T05:26:56;16.20;99.90
11812;DHT22;5963;50.184;9.162;2022-09-03T05:29:24;16.20;99.90
11812;DHT22;5963;50.184;9.162;2022-09-03T05:31:52;16.30;99.90
11812;DHT22;5963;50.184;9.162;2022-09-03T05:34:20;16.20;99.90
11812;DHT22;5963;50.184;9.162;2022-09-03T05:36:50;16.40;99.90
11812;DHT22;5963;50.184;9.162;2022-09-03T05:39:18;16.40;99.90
11812;DHT22;5963;50.184;9.162;2022-09-03T05:41:46;16.50;99.90
11812;DHT22;5963;50.184;9.162;2022-09-03T05:44:18;16.50;99.90
11812;DHT22;5963;50.184;9.162;2022-09-03T05:46:49;16.50;99.90
11812;DHT22;5963;50.184;9.162;2022-09-03T05:49:18;16.60;99.90
11812;DHT22;5963;50.184;9.162;2022-09-03T05:51:46;16.80;99.90
11812;DHT22;5963;50.184;9.162;2022-09-03T05:54:16;16.80;99.90
11812;DHT22;5963;50.184;9.162;2022-09-03T05:56:44;16.60;99.90
11812;DHT22;5963;50.184;9.162;2022-09-03T05:59:12;16.50;99.90
11812;DHT22;5963;50.184;9.162;2022-09-03T06:01:42;16.40;99.90
11812;DHT22;5963;50.184;9.162;2022-09-03T06:04:19;16.40;99.90
11812;DHT22;5963;50.184;9.162;2022-09-03T06:06:47;16.60;99.90
11812;DHT22;5963;50.184;9.162;2022-09-03T06:09:18;16.60;99.90
11812;DHT22;5963;50.184;9.162;2022-09-03T06:11:49;16.60;99.90
11812;DHT22;5963;50.184;9.162;2022-09-03T06:14:18;16.60;99.90
11812;DHT22;5963;50.184;9.162;2022-09-03T06:16:48;16.70;99.90
11812;DHT22;5963;50.184;9.162;2022-09-03T06:19:18;16.60;99.90
11812;DHT22;5963;50.184;9.162;2022-09-03T06:21:47;16.60;99.90
11812;DHT22;5963;50.184;9.162;2022-09-03T06:24:17;16.60;99.90
11812;DHT22;5963;50.184;9.162;2022-09-03T06:26:47;16.50;99.90
11812;DHT22;5963;50.184;9.162;2022-09-03T06:29:15;16.60;99.90
11812;DHT22;5963;50.184;9.162;2022-09-03T06:31:45;16.50;99.90
11812;DHT22;5963;50.184;9.162;2022-09-03T06:34:14;16.50;99.90
11812;DHT22;5963;50.184;9.162;2022-09-03T06:36:44;16.70;99.90
11812;DHT22;5963;50.184;9.162;2022-09-03T06:39:12;16.70;99.90
11812;DHT22;5963;50.184;9.162;2022-09-03T06:41:41;16.60;99.90
11812;DHT22;5963;50.184;9.162;2022-09-03T06:44:10;16.70;99.90
11812;DHT22;5963;50.184;9.162;2022-09-03T06:46:39;16.80;99.90
11812;DHT22;5963;50.184;9.162;2022-09-03T06:49:09;16.90;99.90
11812;DHT22;5963;50.184;9.162;2022-09-03T06:51:38;16.80;99.90
11812;DHT22;5963;50.184;9.162;2022-09-03T06:54:07;16.80;99.90
11812;DHT22;5963;50.184;9.162;2022-09-03T06:56:37;16.80;99.90
11812;DHT22;5963;50.184;9.162;2022-09-03T06:59:09;16.90;99.90
11812;DHT22;5963;50.184;9.162;2022-09-03T07:01:38;17.00;99.90
11812;DHT22;5963;50.184;9.162;2022-09-03T07:04:10;17.10;99.90
11812;DHT22;5963;50.184;9.162;2022-09-03T07:06:40;17.10;99.90
11812;DHT22;5963;50.184;9.162;2022-09-03T07:09:10;17.10;99.90
11812;DHT22;5963;50.184;9.162;2022-09-03T07:11:38;17.20;99.90
11812;DHT22;5963;50.184;9.162;2022-09-03T07:14:16;17.20;99.90
11812;DHT22;5963;50.184;9.162;2022-09-03T07:16:44;17.30;99.90
11812;DHT22;5963;50.184;9.162;2022-09-03T07:19:13;17.30;99.90
11812;DHT22;5963;50.184;9.162;2022-09-03T07:21:41;17.20;99.90
11812;DHT22;5963;50.184;9.162;2022-09-03T07:24:15;17.30;99.90
11812;DHT22;5963;50.184;9.162;2022-09-03T07:26:43;17.20;99.90
11812;DHT22;5963;50.184;9.162;2022-09-03T07:29:14;17.20;99.90
11812;DHT22;5963;50.184;9.162;2022-09-03T07:31:45;17.10;99.90
11812;DHT22;5963;50.184;9.162;2022-09-03T07:34:14;17.10;99.90
11812;DHT22;5963;50.184;9.162;2022-09-03T07:36:44;17.10;99.90
11812;DHT22;5963;50.184;9.162;2022-09-03T07:39:15;16.90;99.90
11812;DHT22;5963;50.184;9.162;2022-09-03T07:41:44;16.60;99.90
11812;DHT22;5963;50.184;9.162;2022-09-03T07:44:15;16.10;99.90
11812;DHT22;5963;50.184;9.162;2022-09-03T07:46:45;16.10;99.90
11812;DHT22;5963;50.184;9.162;2022-09-03T07:49:14;16.00;99.90
11812;DHT22;5963;50.184;9.162;2022-09-03T07:51:42;16.10;99.90
11812;DHT22;5963;50.184;9.162;2022-09-03T07:54:12;15.90;99.90
11812;DHT22;5963;50.184;9.162;2022-09-03T07:56:40;15.60;99.90
11812;DHT22;5963;50.184;9.162;2022-09-03T07:59:08;15.30;99.90
11812;DHT22;5963;50.184;9.162;2022-09-03T08:01:38;15.10;99.90
11812;DHT22;5963;50.184;9.162;2022-09-03T08:04:07;14.90;99.90
11812;DHT22;5963;50.184;9.162;2022-09-03T08:06:37;14.80;99.90
11812;DHT22;5963;50.184;9.162;2022-09-03T08:09:07;14.70;99.90
11812;DHT22;5963;50.184;9.162;2022-09-03T08:11:38;14.50;99.90
11812;DHT22;5963;50.184;9.162;2022-09-03T08:14:08;14.50;99.90
11812;DHT22;5963;50.184;9.162;2022-09-03T08:16:39;14.50;99.90
11812;DHT22;5963;50.184;9.162;2022-09-03T08:19:07;14.40;99.90
11812;DHT22;5963;50.184;9.162;2022-09-03T08:21:36;14.40;99.90
11812;DHT22;5963;50.184;9.162;2022-09-03T08:24:06;14.40;99.90
11812;DHT22;5963;50.184;9.162;2022-09-03T08:26:36;14.40;99.90
11812;DHT22;5963;50.184;9.162;2022-09-03T08:29:05;14.50;99.90
11812;DHT22;5963;50.184;9.162;2022-09-03T08:31:34;14.60;99.90
11812;DHT22;5963;50.184;9.162;2022-09-03T08:34:05;14.60;99.90
11812;DHT22;5963;50.184;9.162;2022-09-03T08:36:35;14.90;99.90
11812;DHT22;5963;50.184;9.162;2022-09-03T08:39:05;15.20;99.90
11812;DHT22;5963;50.184;9.162;2022-09-03T08:41:52;15.40;99.90
11812;DHT22;5963;50.184;9.162;2022-09-03T08:44:29;15.70;99.90
11812;DHT22;5963;50.184;9.162;2022-09-03T08:47:04;15.90;99.90
11812;DHT22;5963;50.184;9.162;2022-09-03T08:49:41;16.10;99.90
11812;DHT22;5963;50.184;9.162;2022-09-03T08:52:20;16.30;99.90
11812;DHT22;5963;50.184;9.162;2022-09-03T08:54:57;16.50;99.90
11812;DHT22;5963;50.184;9.162;2022-09-03T08:57:27;16.70;99.90
11812;DHT22;5963;50.184;9.162;2022-09-03T08:59:58;17.10;99.90
11812;DHT22;5963;50.184;9.162;2022-09-03T09:02:36;17.30;99.90
11812;DHT22;5963;50.184;9.162;2022-09-03T09:05:16;17.30;99.90
11812;DHT22;5963;50.184;9.162;2022-09-03T09:07:49;17.40;99.90
11812;DHT22;5963;50.184;9.162;2022-09-03T09:10:22;17.50;99.90
11812;DHT22;5963;50.184;9.162;2022-09-03T09:13:07;17.60;99.90
11812;DHT22;5963;50.184;9.162;2022-09-03T09:15:44;17.80;99.90
11812;DHT22;5963;50.184;9.162;2022-09-03T09:18:20;17.80;99.90
11812;DHT22;5963;50.184;9.162;2022-09-03T09:20:55;18.10;99.90
11812;DHT22;5963;50.184;9.162;2022-09-03T09:23:29;18.10;99.90
11812;DHT22;5963;50.184;9.162;2022-09-03T09:26:02;18.10;99.90
11812;DHT22;5963;50.184;9.162;2022-09-03T09:28:34;18.10;99.90
11812;DHT22;5963;50.184;9.162;2022-09-03T09:31:05;18.00;99.90
11812;DHT22;5963;50.184;9.162;2022-09-03T09:33:35;18.10;99.90
11812;DHT22;5963;50.184;9.162;2022-09-03T09:36:10;18.10;99.90
11812;DHT22;5963;50.184;9.162;2022-09-03T09:38:41;18.10;99.90
11812;DHT22;5963;50.184;9.162;2022-09-03T09:41:11;18.10;99.90
11812;DHT22;5963;50.184;9.162;2022-09-03T09:43:40;18.30;99.90
11812;DHT22;5963;50.184;9.162;2022-09-03T09:46:12;18.40;99.90
11812;DHT22;5963;50.184;9.162;2022-09-03T09:48:48;18.70;99.90
11812;DHT22;5963;50.184;9.162;2022-09-03T09:51:20;19.20;99.90
11812;DHT22;5963;50.184;9.162;2022-09-03T09:54:00;19.90;99.90
11812;DHT22;5963;50.184;9.162;2022-09-03T09:56:29;20.60;99.90
11812;DHT22;5963;50.184;9.162;2022-09-03T09:59:05;20.90;99.90
11812;DHT22;5963;50.184;9.162;2022-09-03T10:01:34;21.20;99.90
11812;DHT22;5963;50.184;9.162;2022-09-03T10:04:09;20.80;99.90
11812;DHT22;5963;50.184;9.162;2022-09-03T10:06:39;21.00;99.90
11812;DHT22;5963;50.184;9.162;2022-09-03T10:09:24;20.90;99.90
11812;DHT22;5963;50.184;9.162;2022-09-03T10:12:06;20.80;99.90
11812;DHT22;5963;50.184;9.162;2022-09-03T10:14:43;20.60;99.90
11812;DHT22;5963;50.184;9.162;2022-09-03T10:17:17;20.70;99.90
11812;DHT22;5963;50.184;9.162;2022-09-03T10:20:06;20.70;99.90
11812;DHT22;5963;50.184;9.162;2022-09-03T10:23:01;20.70;99.90
11812;DHT22;5963;50.184;9.162;2022-09-03T10:25:39;21.00;99.90
11812;DHT22;5963;50.184;9.162;2022-09-03T10:28:11;21.00;99.90
11812;DHT22;5963;50.184;9.162;2022-09-03T10:30:50;21.30;99.90
11812;DHT22;5963;50.184;9.162;2022-09-03T10:33:26;21.90;99.90
11812;DHT22;5963;50.184;9.162;2022-09-03T10:36:06;22.40;99.90
11812;DHT22;5963;50.184;9.162;2022-09-03T10:38:38;22.40;99.90
11812;DHT22;5963;50.184;9.162;2022-09-03T10:41:16;22.50;99.90
11812;DHT22;5963;50.184;9.162;2022-09-03T10:44:01;22.40;99.90
11812;DHT22;5963;50.184;9.162;2022-09-03T10:46:37;21.70;99.90
11812;DHT22;5963;50.184;9.162;2022-09-03T10:49:28;21.90;99.90
11812;DHT22;5963;50.184;9.162;2022-09-03T10:52:01;22.00;99.90
11812;DHT22;5963;50.184;9.162;2022-09-03T10:54:40;21.80;99.90
11812;DHT22;5963;50.184;9.162;2022-09-03T10:57:18;21.30;99.90
11812;DHT22;5963;50.184;9.162;2022-09-03T10:59:59;21.40;99.90
11812;DHT22;5963;50.184;9.162;2022-09-03T11:02:42;21.60;99.90
11812;DHT22;5963;50.184;9.162;2022-09-03T11:05:16;21.60;99.90
11812;DHT22;5963;50.184;9.162;2022-09-03T11:07:51;21.40;99.90
11812;DHT22;5963;50.184;9.162;2022-09-03T11:10:27;21.40;99.90
11812;DHT22;5963;50.184;9.162;2022-09-03T11:13:02;21.60;99.90
11812;DHT22;5963;50.184;9.162;2022-09-03T11:15:36;21.10;99.90
11812;DHT22;5963;50.184;9.162;2022-09-03T11:18:13;20.90;99.90
11812;DHT22;5963;50.184;9.162;2022-09-03T11:20:44;20.80;99.90
11812;DHT22;5963;50.184;9.162;2022-09-03T11:23:13;20.70;99.90
11812;DHT22;5963;50.184;9.162;2022-09-03T11:25:50;20.90;99.90
11812;DHT22;5963;50.184;9.162;2022-09-03T11:28:28;20.90;99.90
11812;DHT22;5963;50.184;9.162;2022-09-03T11:31:15;21.00;99.90
11812;DHT22;5963;50.184;9.162;2022-09-03T11:33:46;21.00;99.90
11812;DHT22;5963;50.184;9.162;2022-09-03T11:36:24;21.00;99.90
11812;DHT22;5963;50.184;9.162;2022-09-03T11:38:54;21.40;99.90
11812;DHT22;5963;50.184;9.162;2022-09-03T11:41:25;21.50;99.90
11812;DHT22;5963;50.184;9.162;2022-09-03T11:43:54;21.30;99.90
11812;DHT22;5963;50.184;9.162;2022-09-03T11:46:29;21.10;99.90
11812;DHT22;5963;50.184;9.162;2022-09-03T11:49:09;21.00;99.90
11812;DHT22;5963;50.184;9.162;2022-09-03T11:51:38;21.00;99.90
11812;DHT22;5963;50.184;9.162;2022-09-03T11:54:24;21.00;99.90
11812;DHT22;5963;50.184;9.162;2022-09-03T11:57:06;21.10;99.90
11812;DHT22;5963;50.184;9.162;2022-09-03T11:59:37;21.30;99.90
11812;DHT22;5963;50.184;9.162;2022-09-03T12:02:15;21.30;99.90
11812;DHT22;5963;50.184;9.162;2022-09-03T12:04:53;21.70;99.90
11812;DHT22;5963;50.184;9.162;2022-09-03T12:07:37;21.90;99.90
11812;DHT22;5963;50.184;9.162;2022-09-03T12:10:23;22.70;99.90
11812;DHT22;5963;50.184;9.162;2022-09-03T12:13:06;23.20;99.90
11812;DHT22;5963;50.184;9.162;2022-09-03T12:18:53;23.90;99.90
11812;DHT22;5963;50.184;9.162;2022-09-03T12:21:24;23.30;99.90
11812;DHT22;5963;50.184;9.162;2022-09-03T12:23:52;23.40;99.90
11812;DHT22;5963;50.184;9.162;2022-09-03T12:26:25;23.80;99.90
11812;DHT22;5963;50.184;9.162;2022-09-03T12:28:56;24.40;99.90
11812;DHT22;5963;50.184;9.162;2022-09-03T12:31:28;24.90;99.90
11812;DHT22;5963;50.184;9.162;2022-09-03T12:33:59;25.30;99.90
11812;DHT22;5963;50.184;9.162;2022-09-03T12:36:36;25.00;99.90
11812;DHT22;5963;50.184;9.162;2022-09-03T12:39:08;25.20;99.90
11812;DHT22;5963;50.184;9.162;2022-09-03T12:41:52;25.40;99.90
11812;DHT22;5963;50.184;9.162;2022-09-03T12:44:26;25.20;99.90
11812;DHT22;5963;50.184;9.162;2022-09-03T12:47:15;24.70;99.90
11812;DHT22;5963;50.184;9.162;2022-09-03T12:50:06;24.40;99.90
11812;DHT22;5963;50.184;9.162;2022-09-03T12:52:38;24.00;99.90
11812;DHT22;5963;50.184;9.162;2022-09-03T12:58:08;24.10;99.90
11812;DHT22;5963;50.184;9.162;2022-09-03T13:00:43;24.30;99.90
11812;DHT22;5963;50.184;9.162;2022-09-03T13:03:16;24.90;99.90
11812;DHT22;5963;50.184;9.162;2022-09-03T13:05:48;25.40;99.90
11812;DHT22;5963;50.184;9.162;2022-09-03T13:08:22;25.70;99.90
11812;DHT22;5963;50.184;9.162;2022-09-03T13:10:52;25.90;99.90
11812;DHT22;5963;50.184;9.162;2022-09-03T13:13:23;25.90;99.90
11812;DHT22;5963;50.184;9.162;2022-09-03T13:18:50;25.80;99.90
11812;DHT22;5963;50.184;9.162;2022-09-03T13:21:31;24.90;99.90
11812;DHT22;5963;50.184;9.162;2022-09-03T13:24:12;24.80;99.90
11812;DHT22;5963;50.184;9.162;2022-09-03T13:26:51;24.70;99.90
11812;DHT22;5963;50.184;9.162;2022-09-03T13:29:38;24.20;99.90
11812;DHT22;5963;50.184;9.162;2022-09-03T13:32:24;24.50;99.90
11812;DHT22;5963;50.184;9.162;2022-09-03T13:34:58;25.20;99.90
11812;DHT22;5963;50.184;9.162;2022-09-03T13:37:34;25.60;99.90
11812;DHT22;5963;50.184;9.162;2022-09-03T13:40:12;25.40;99.90
11812;DHT22;5963;50.184;9.162;2022-09-03T13:42:47;24.90;99.90
11812;DHT22;5963;50.184;9.162;2022-09-03T13:45:28;25.20;99.90
11812;DHT22;5963;50.184;9.162;2022-09-03T13:48:07;25.30;99.90
11812;DHT22;5963;50.184;9.162;2022-09-03T13:51:00;25.00;99.90
11812;DHT22;5963;50.184;9.162;2022-09-03T13:53:39;24.90;99.90
11812;DHT22;5963;50.184;9.162;2022-09-03T13:56:20;25.10;99.90
11812;DHT22;5963;50.184;9.162;2022-09-03T13:58:57;25.50;99.90
11812;DHT22;5963;50.184;9.162;2022-09-03T14:01:52;25.10;99.90
11812;DHT22;5963;50.184;9.162;2022-09-03T14:04:33;25.40;99.90
11812;DHT22;5963;50.184;9.162;2022-09-03T14:07:10;25.50;99.90
11812;DHT22;5963;50.184;9.162;2022-09-03T14:09:47;25.50;99.90
11812;DHT22;5963;50.184;9.162;2022-09-03T14:12:24;25.00;99.90
11812;DHT22;5963;50.184;9.162;2022-09-03T14:15:00;24.80;99.90
11812;DHT22;5963;50.184;9.162;2022-09-03T14:17:35;24.60;99.90
11812;DHT22;5963;50.184;9.162;2022-09-03T14:20:11;24.70;99.90
11812;DHT22;5963;50.184;9.162;2022-09-03T14:22:48;24.20;99.90
11812;DHT22;5963;50.184;9.162;2022-09-03T14:25:20;24.20;99.90
11812;DHT22;5963;50.184;9.162;2022-09-03T14:27:48;24.60;99.90
11812;DHT22;5963;50.184;9.162;2022-09-03T14:30:24;24.70;99.90
11812;DHT22;5963;50.184;9.162;2022-09-03T14:33:00;24.80;99.90
11812;DHT22;5963;50.184;9.162;2022-09-03T14:35:38;24.60;99.90
11812;DHT22;5963;50.184;9.162;2022-09-03T14:38:52;25.10;99.90
11812;DHT22;5963;50.184;9.162;2022-09-03T14:41:54;25.00;99.90
11812;DHT22;5963;50.184;9.162;2022-09-03T14:50:43;24.00;99.90
11812;DHT22;5963;50.184;9.162;2022-09-03T14:53:30;24.10;99.90
11812;DHT22;5963;50.184;9.162;2022-09-03T14:56:16;23.90;99.90
11812;DHT22;5963;50.184;9.162;2022-09-03T14:59:09;23.90;99.90
11812;DHT22;5963;50.184;9.162;2022-09-03T15:01:41;24.30;99.90
11812;DHT22;5963;50.184;9.162;2022-09-03T15:04:33;24.20;99.90
11812;DHT22;5963;50.184;9.162;2022-09-03T15:07:17;24.00;99.90
11812;DHT22;5963;50.184;9.162;2022-09-03T15:09:56;24.30;99.90
11812;DHT22;5963;50.184;9.162;2022-09-03T15:12:33;24.60;99.90
11812;DHT22;5963;50.184;9.162;2022-09-03T15:15:07;24.40;99.90
11812;DHT22;5963;50.184;9.162;2022-09-03T15:17:47;24.10;99.90
11812;DHT22;5963;50.184;9.162;2022-09-03T15:20:23;24.20;99.90
11812;DHT22;5963;50.184;9.162;2022-09-03T15:23:09;24.30;99.90
11812;DHT22;5963;50.184;9.162;2022-09-03T15:25:49;24.00;99.90
11812;DHT22;5963;50.184;9.162;2022-09-03T15:28:23;23.90;99.90
11812;DHT22;5963;50.184;9.162;2022-09-03T15:31:02;24.30;99.90
11812;DHT22;5963;50.184;9.162;2022-09-03T15:33:42;24.10;99.90
11812;DHT22;5963;50.184;9.162;2022-09-03T15:36:16;23.80;99.90
11812;DHT22;5963;50.184;9.162;2022-09-03T15:38:51;24.00;99.90
11812;DHT22;5963;50.184;9.162;2022-09-03T15:41:38;24.20;99.90
11812;DHT22;5963;50.184;9.162;2022-09-03T15:44:11;24.30;99.90
11812;DHT22;5963;50.184;9.162;2022-09-03T15:46:55;24.20;99.90
11812;DHT22;5963;50.184;9.162;2022-09-03T15:49:35;23.90;99.90
11812;DHT22;5963;50.184;9.162;2022-09-03T15:52:14;23.90;99.90
11812;DHT22;5963;50.184;9.162;2022-09-03T15:54:57;23.40;99.90
11812;DHT22;5963;50.184;9.162;2022-09-03T15:57:32;23.30;99.90
11812;DHT22;5963;50.184;9.162;2022-09-03T16:00:07;23.40;99.90
11812;DHT22;5963;50.184;9.162;2022-09-03T16:02:41;23.40;99.90
11812;DHT22;5963;50.184;9.162;2022-09-03T16:05:13;23.50;99.90
11812;DHT22;5963;50.184;9.162;2022-09-03T16:08:03;23.50;99.90
11812;DHT22;5963;50.184;9.162;2022-09-03T16:10:47;23.60;99.90
11812;DHT22;5963;50.184;9.162;2022-09-03T16:13:31;23.50;99.90
11812;DHT22;5963;50.184;9.162;2022-09-03T16:16:04;23.40;99.90
11812;DHT22;5963;50.184;9.162;2022-09-03T16:18:36;23.40;99.90
11812;DHT22;5963;50.184;9.162;2022-09-03T16:21:10;23.40;99.90
11812;DHT22;5963;50.184;9.162;2022-09-03T16:23:45;23.40;99.90
11812;DHT22;5963;50.184;9.162;2022-09-03T16:26:24;23.50;99.90
11812;DHT22;5963;50.184;9.162;2022-09-03T16:28:59;23.50;99.90
11812;DHT22;5963;50.184;9.162;2022-09-03T16:31:38;23.50;99.90
11812;DHT22;5963;50.184;9.162;2022-09-03T16:34:14;23.40;99.90
11812;DHT22;5963;50.184;9.162;2022-09-03T16:36:51;23.30;99.90
11812;DHT22;5963;50.184;9.162;2022-09-03T16:39:30;23.20;99.90
11812;DHT22;5963;50.184;9.162;2022-09-03T16:42:08;23.20;99.90
11812;DHT22;5963;50.184;9.162;2022-09-03T16:44:48;23.20;99.90